Detalii statie AGROSTAR [00001CEF]

Toti senzorii

Date Temperatura solului [C]Precipitatii [mm]Voltaj baterie [mV]HC Air temperature [C]HC Relative humidity [%]Punctul de roua [C]
medieminmaxsumaultimamedieminmaxmediemediemin
2019-08-15 21:00:00 22.5 22.4 22.7 0 6738 16.96 16.85 17.08 65.61 10.3 10
2019-08-15 22:00:00 22.3 22.3 22.5 0 6718 16.66 16.56 16.85 65.71 10.1 9.9
2019-08-15 23:00:00 22.2 22.1 22.4 0 6708 16.2 15.96 16.49 67.52 10 9.8
2019-08-16 00:00:00 22.1 22 22.2 0 6708 16.05 16.01 16.11 67.46 9.9 9.9
2019-08-16 01:00:00 21.9 21.8 22 0 6698 15.87 15.79 15.99 68.97 10 9.7
2019-08-16 02:00:00 21.7 21.6 21.9 0 6688 15.19 14.65 15.87 69.18 9.4 9.2
2019-08-16 03:00:00 21.6 21.5 21.8 0 6688 14.79 14.44 15.06 69.81 9.2 8.9
2019-08-16 04:00:00 21.4 21.4 21.6 0 6668 14.49 14.03 15.11 70.4 9 8.8
2019-08-16 05:00:00 21.2 21.2 21.5 0 6660 13.33 12.9 13.95 76.29 9.1 8.9
2019-08-16 06:00:00 21.1 20.9 21.2 0 6668 12.41 11.71 13.08 81.65 9.2 8.9
2019-08-16 07:00:00 20.8 20.7 21 0 6718 13.4 13.06 14.05 80.07 9.8 9.7
2019-08-16 08:00:00 20.7 20.6 20.8 0 6816 15.42 14.36 17.1 69.66 9.7 9.2
2019-08-16 09:00:00 20.5 20.4 20.7 0 6922 18.06 17.25 18.96 59.36 9.8 9.4
2019-08-16 10:00:00 20.5 20.4 20.7 0 7236 20.85 18.17 23.09 50.05 9.8 9.1
2019-08-16 11:00:00 20.5 20.5 20.7 0 7264 23.46 21.75 24.12 43.87 10.2 9.8
2019-08-16 12:00:00 20.8 20.6 20.9 0 7254 23.2 21.62 24.73 45.29 10.4 9.4
2019-08-16 13:00:00 21.1 20.9 21.2 0 7264 25.53 24.25 27.07 40.23 10.7 9.9
2019-08-16 14:00:00 21.4 21.3 21.6 0 7254 24.48 22.25 26.43 43.25 10.8 9.9
2019-08-16 15:00:00 21.7 21.5 21.9 0 7254 24.59 22.62 25.64 43.89 11.2 9.9
2019-08-16 16:00:00 21.9 21.8 22.1 0 7088 23.27 21.53 26.17 47.52 11.2 10.3
2019-08-16 17:00:00 22.1 22 22.2 0 7060 21.54 20.63 22.53 53.96 11.6 10.9
2019-08-16 18:00:00 22.2 22.2 22.4 0 7206 20.12 19.84 20.42 60.14 12 11.6
2019-08-16 19:00:00 22.2 22.2 22.4 0 6834 19.07 17.88 19.86 64.36 12 11.3
2019-08-16 20:00:00 22.1 22.1 22.3 0 6766 17.52 16.73 17.95 74.09 12.7 12.4
2019-08-16 21:00:00 22.1 22 22.3 0 6728 15.61 15 16.57 83.02 12.5 12.3
2019-08-16 22:00:00 21.9 21.8 22.2 0 6708 15.47 15.01 15.95 87.93 13.3 12.9
2019-08-16 23:00:00 21.7 21.6 22 0 6708 15.78 15.67 15.88 84.75 13 12.9
2019-08-17 00:00:00 21.6 21.5 21.8 0 6698 14.55 13.89 15.53 88.61 12.5 12.3
2019-08-17 01:00:00 21.4 21.4 21.6 0 6678 14.42 14.03 14.56 88.11 12.3 12
2019-08-17 02:00:00 21.3 21.1 21.4 0 6688 13.49 12.56 14.41 87.27 11.2 10.6
2019-08-17 03:00:00 21.1 21.1 21.4 0 6678 12.09 11.6 12.55 92.24 10.7 10.3
2019-08-17 04:00:00 20.9 20.7 21.1 0 6668 11.82 11.56 12.17 93.09 10.6 10.4
2019-08-17 05:00:00 20.7 20.6 20.8 0 6660 11.45 11.2 11.66 92.32 10.1 9.8
2019-08-17 06:00:00 20.5 20.3 20.7 0 6660 11.54 11.46 11.64 91.4 10 9.9
2019-08-17 07:00:00 20.3 20.2 20.5 0 6688 12.01 11.55 12.72 89.37 10.1 9.9
2019-08-17 08:00:00 20.1 20 20.2 0 6786 14.23 12.89 15.75 80.43 10.7 10.3
2019-08-17 09:00:00 20 20 20.2 0 6874 16.72 16.19 17.36 69.56 10.9 10.4
2019-08-17 10:00:00 20 19.9 20.1 0 7246 20.99 17.77 23.55 52.01 10.4 9.9
2019-08-17 11:00:00 20 20 20.2 0 7264 23.64 22.17 24.78 45.52 11 10.3
2019-08-17 12:00:00 20.2 20.1 20.4 0 7254 24.82 22.69 26.81 42.17 10.9 9.3
2019-08-17 13:00:00 20.6 20.5 20.8 0 7264 24.8 21.8 26.41 37.63 9 8
2019-08-17 14:00:00 20.9 20.8 21.1 0 7196 25.7 22.33 28.51 34.62 8.6 7.7
2019-08-17 15:00:00 21.1 21.1 21.3 0 7254 25.05 22.87 26.54 37.5 9.2 8.3
2019-08-17 16:00:00 21.3 21.3 21.4 0 7246 26.02 25.18 27.46 34.55 8.9 8.4
2019-08-17 17:00:00 21.5 21.5 21.7 0 7246 25.26 23.4 26.82 39 10.1 8.9
2019-08-17 18:00:00 21.7 21.6 21.9 0 6982 25.46 24.61 26.38 39.43 10.4 9.6
2019-08-17 19:00:00 21.8 21.8 21.9 0 6816 21.55 19.89 23.63 50.68 10.6 9.8
2019-08-17 20:00:00 21.8 21.8 21.9 0 6766 18.29 16.79 19.69 66.34 11.7 11.4